sensor_id;sensor_type;location;lat;lon;timestamp;P1;durP1;ratioP1;P2;durP2;ratioP2
52798;SDS011;38667;42.872;74.622;2024-02-26T00:00:31;159.10;;;45.43;;
52798;SDS011;38667;42.872;74.622;2024-02-26T00:02:58;157.30;;;45.57;;
52798;SDS011;38667;42.872;74.622;2024-02-26T00:05:24;152.23;;;43.60;;
52798;SDS011;38667;42.872;74.622;2024-02-26T00:07:50;143.07;;;44.30;;
52798;SDS011;38667;42.872;74.622;2024-02-26T00:10:17;154.80;;;42.27;;
52798;SDS011;38667;42.872;74.622;2024-02-26T00:12:43;160.67;;;43.20;;
52798;SDS011;38667;42.872;74.622;2024-02-26T00:15:09;158.80;;;48.43;;
52798;SDS011;38667;42.872;74.622;2024-02-26T00:17:38;160.13;;;47.83;;
52798;SDS011;38667;42.872;74.622;2024-02-26T00:20:05;167.37;;;46.87;;
52798;SDS011;38667;42.872;74.622;2024-02-26T00:22:32;184.43;;;47.27;;
52798;SDS011;38667;42.872;74.622;2024-02-26T00:24:58;189.23;;;49.83;;
52798;SDS011;38667;42.872;74.622;2024-02-26T00:27:25;191.37;;;48.90;;
52798;SDS011;38667;42.872;74.622;2024-02-26T00:29:51;171.77;;;46.50;;
52798;SDS011;38667;42.872;74.622;2024-02-26T00:32:18;170.33;;;46.03;;
52798;SDS011;38667;42.872;74.622;2024-02-26T00:34:45;171.40;;;47.50;;
52798;SDS011;38667;42.872;74.622;2024-02-26T00:37:12;165.67;;;49.40;;
52798;SDS011;38667;42.872;74.622;2024-02-26T00:39:38;203.17;;;49.63;;
52798;SDS011;38667;42.872;74.622;2024-02-26T00:42:04;182.20;;;50.80;;
52798;SDS011;38667;42.872;74.622;2024-02-26T00:44:31;180.37;;;51.03;;
52798;SDS011;38667;42.872;74.622;2024-02-26T00:46:57;161.00;;;49.37;;
52798;SDS011;38667;42.872;74.622;2024-02-26T00:49:23;156.73;;;47.67;;
52798;SDS011;38667;42.872;74.622;2024-02-26T00:51:51;173.97;;;48.87;;
52798;SDS011;38667;42.872;74.622;2024-02-26T00:54:18;199.03;;;50.47;;
52798;SDS011;38667;42.872;74.622;2024-02-26T00:56:44;194.23;;;50.47;;
52798;SDS011;38667;42.872;74.622;2024-02-26T00:59:11;207.43;;;51.30;;
52798;SDS011;38667;42.872;74.622;2024-02-26T01:01:37;159.67;;;46.00;;
52798;SDS011;38667;42.872;74.622;2024-02-26T01:04:03;169.20;;;47.47;;
52798;SDS011;38667;42.872;74.622;2024-02-26T01:06:30;156.87;;;47.40;;
52798;SDS011;38667;42.872;74.622;2024-02-26T01:08:58;196.20;;;55.80;;
52798;SDS011;38667;42.872;74.622;2024-02-26T01:11:24;162.97;;;49.03;;
52798;SDS011;38667;42.872;74.622;2024-02-26T01:13:51;159.77;;;48.87;;
52798;SDS011;38667;42.872;74.622;2024-02-26T01:16:17;149.73;;;46.67;;
52798;SDS011;38667;42.872;74.622;2024-02-26T01:18:44;185.30;;;55.07;;
52798;SDS011;38667;42.872;74.622;2024-02-26T01:21:10;141.07;;;45.63;;
52798;SDS011;38667;42.872;74.622;2024-02-26T01:23:36;176.57;;;51.83;;
52798;SDS011;38667;42.872;74.622;2024-02-26T01:26:04;163.67;;;46.10;;
52798;SDS011;38667;42.872;74.622;2024-02-26T01:28:30;153.43;;;47.13;;
52798;SDS011;38667;42.872;74.622;2024-02-26T01:30:58;158.30;;;50.53;;
52798;SDS011;38667;42.872;74.622;2024-02-26T01:33:25;150.73;;;45.17;;
52798;SDS011;38667;42.872;74.622;2024-02-26T01:35:51;152.30;;;43.73;;
52798;SDS011;38667;42.872;74.622;2024-02-26T01:38:18;143.83;;;44.20;;
52798;SDS011;38667;42.872;74.622;2024-02-26T01:40:44;147.43;;;46.87;;
52798;SDS011;38667;42.872;74.622;2024-02-26T01:43:12;142.03;;;45.60;;
52798;SDS011;38667;42.872;74.622;2024-02-26T01:45:39;152.30;;;44.57;;
52798;SDS011;38667;42.872;74.622;2024-02-26T01:48:05;165.27;;;46.07;;
52798;SDS011;38667;42.872;74.622;2024-02-26T01:50:32;151.33;;;45.60;;
52798;SDS011;38667;42.872;74.622;2024-02-26T01:52:59;159.37;;;47.37;;
52798;SDS011;38667;42.872;74.622;2024-02-26T01:55:26;168.50;;;50.00;;
52798;SDS011;38667;42.872;74.622;2024-02-26T01:57:53;178.60;;;47.50;;
52798;SDS011;38667;42.872;74.622;2024-02-26T02:03:07;166.50;;;47.07;;
52798;SDS011;38667;42.872;74.622;2024-02-26T02:07:39;157.47;;;45.67;;
52798;SDS011;38667;42.872;74.622;2024-02-26T02:10:12;151.93;;;48.63;;
52798;SDS011;38667;42.872;74.622;2024-02-26T02:12:39;157.90;;;45.53;;
52798;SDS011;38667;42.872;74.622;2024-02-26T02:15:06;177.23;;;48.13;;
52798;SDS011;38667;42.872;74.622;2024-02-26T02:17:33;163.37;;;47.57;;
52798;SDS011;38667;42.872;74.622;2024-02-26T02:20:03;168.93;;;48.90;;
52798;SDS011;38667;42.872;74.622;2024-02-26T02:22:42;158.77;;;47.50;;
52798;SDS011;38667;42.872;74.622;2024-02-26T02:25:08;175.87;;;50.90;;
52798;SDS011;38667;42.872;74.622;2024-02-26T02:27:34;184.23;;;51.20;;
52798;SDS011;38667;42.872;74.622;2024-02-26T02:30:01;184.90;;;51.13;;
52798;SDS011;38667;42.872;74.622;2024-02-26T02:32:27;191.40;;;51.40;;
52798;SDS011;38667;42.872;74.622;2024-02-26T02:34:55;180.37;;;50.30;;
52798;SDS011;38667;42.872;74.622;2024-02-26T02:37:22;190.07;;;51.83;;
52798;SDS011;38667;42.872;74.622;2024-02-26T02:39:50;184.87;;;49.80;;
52798;SDS011;38667;42.872;74.622;2024-02-26T02:42:16;158.37;;;50.30;;
52798;SDS011;38667;42.872;74.622;2024-02-26T02:44:43;182.73;;;52.37;;
52798;SDS011;38667;42.872;74.622;2024-02-26T02:47:09;153.83;;;48.50;;
52798;SDS011;38667;42.872;74.622;2024-02-26T02:49:37;152.90;;;47.27;;
52798;SDS011;38667;42.872;74.622;2024-02-26T02:52:04;175.30;;;50.63;;
52798;SDS011;38667;42.872;74.622;2024-02-26T02:54:33;182.33;;;51.77;;
52798;SDS011;38667;42.872;74.622;2024-02-26T02:57:06;169.40;;;49.47;;
52798;SDS011;38667;42.872;74.622;2024-02-26T02:59:32;192.70;;;49.10;;
52798;SDS011;38667;42.872;74.622;2024-02-26T03:01:58;178.33;;;49.20;;
52798;SDS011;38667;42.872;74.622;2024-02-26T03:04:25;167.70;;;49.73;;
52798;SDS011;38667;42.872;74.622;2024-02-26T03:06:51;205.63;;;56.67;;
52798;SDS011;38667;42.872;74.622;2024-02-26T03:09:18;201.77;;;54.10;;
52798;SDS011;38667;42.872;74.622;2024-02-26T03:11:44;203.30;;;54.17;;
52798;SDS011;38667;42.872;74.622;2024-02-26T03:14:12;215.93;;;58.90;;
52798;SDS011;38667;42.872;74.622;2024-02-26T03:16:38;172.37;;;53.53;;
52798;SDS011;38667;42.872;74.622;2024-02-26T03:19:04;182.57;;;50.83;;
52798;SDS011;38667;42.872;74.622;2024-02-26T03:21:31;158.97;;;49.10;;
52798;SDS011;38667;42.872;74.622;2024-02-26T03:23:59;168.40;;;51.23;;
52798;SDS011;38667;42.872;74.622;2024-02-26T03:26:26;190.53;;;55.20;;
52798;SDS011;38667;42.872;74.622;2024-02-26T03:28:52;176.47;;;51.17;;
52798;SDS011;38667;42.872;74.622;2024-02-26T03:31:20;178.10;;;51.30;;
52798;SDS011;38667;42.872;74.622;2024-02-26T03:33:46;198.90;;;52.47;;
52798;SDS011;38667;42.872;74.622;2024-02-26T03:36:12;185.47;;;51.87;;
52798;SDS011;38667;42.872;74.622;2024-02-26T03:38:39;178.90;;;51.93;;
52798;SDS011;38667;42.872;74.622;2024-02-26T03:41:05;184.20;;;53.60;;
52798;SDS011;38667;42.872;74.622;2024-02-26T03:43:31;197.97;;;65.17;;
52798;SDS011;38667;42.872;74.622;2024-02-26T03:45:58;182.40;;;58.00;;
52798;SDS011;38667;42.872;74.622;2024-02-26T03:48:26;205.53;;;67.53;;
52798;SDS011;38667;42.872;74.622;2024-02-26T03:50:52;184.53;;;58.23;;
52798;SDS011;38667;42.872;74.622;2024-02-26T03:53:18;175.50;;;54.93;;
52798;SDS011;38667;42.872;74.622;2024-02-26T03:55:45;162.73;;;52.77;;
52798;SDS011;38667;42.872;74.622;2024-02-26T03:58:12;168.57;;;53.03;;
52798;SDS011;38667;42.872;74.622;2024-02-26T04:00:38;173.53;;;49.23;;
52798;SDS011;38667;42.872;74.622;2024-02-26T04:03:05;183.13;;;53.03;;
52798;SDS011;38667;42.872;74.622;2024-02-26T04:05:33;182.07;;;56.70;;
52798;SDS011;38667;42.872;74.622;2024-02-26T04:07:59;188.73;;;62.57;;
52798;SDS011;38667;42.872;74.622;2024-02-26T04:10:25;184.23;;;56.90;;
52798;SDS011;38667;42.872;74.622;2024-02-26T04:12:51;167.37;;;54.60;;
52798;SDS011;38667;42.872;74.622;2024-02-26T04:15:18;175.43;;;53.57;;
52798;SDS011;38667;42.872;74.622;2024-02-26T04:17:44;183.93;;;58.90;;
52798;SDS011;38667;42.872;74.622;2024-02-26T04:20:13;167.53;;;56.23;;
52798;SDS011;38667;42.872;74.622;2024-02-26T04:22:42;172.90;;;54.83;;
52798;SDS011;38667;42.872;74.622;2024-02-26T04:25:08;165.23;;;52.90;;
52798;SDS011;38667;42.872;74.622;2024-02-26T04:27:35;185.43;;;49.13;;
52798;SDS011;38667;42.872;74.622;2024-02-26T04:30:01;172.73;;;52.23;;
52798;SDS011;38667;42.872;74.622;2024-02-26T04:32:28;178.10;;;52.07;;
52798;SDS011;38667;42.872;74.622;2024-02-26T04:34:54;164.00;;;48.53;;
52798;SDS011;38667;42.872;74.622;2024-02-26T04:37:20;163.70;;;48.83;;
52798;SDS011;38667;42.872;74.622;2024-02-26T04:39:49;188.83;;;56.70;;
52798;SDS011;38667;42.872;74.622;2024-02-26T04:42:16;185.30;;;52.93;;
52798;SDS011;38667;42.872;74.622;2024-02-26T04:44:42;179.10;;;56.43;;
52798;SDS011;38667;42.872;74.622;2024-02-26T04:47:09;175.80;;;52.20;;
52798;SDS011;38667;42.872;74.622;2024-02-26T04:49:35;174.07;;;54.33;;
52798;SDS011;38667;42.872;74.622;2024-02-26T04:52:01;177.87;;;52.17;;
52798;SDS011;38667;42.872;74.622;2024-02-26T04:54:28;210.87;;;63.93;;
52798;SDS011;38667;42.872;74.622;2024-02-26T04:56:56;179.50;;;56.30;;
52798;SDS011;38667;42.872;74.622;2024-02-26T04:59:22;190.27;;;57.40;;
52798;SDS011;38667;42.872;74.622;2024-02-26T05:01:48;195.10;;;60.37;;
52798;SDS011;38667;42.872;74.622;2024-02-26T05:04:14;202.30;;;61.30;;
52798;SDS011;38667;42.872;74.622;2024-02-26T05:06:41;207.80;;;63.73;;
52798;SDS011;38667;42.872;74.622;2024-02-26T05:09:07;167.83;;;54.20;;
52798;SDS011;38667;42.872;74.622;2024-02-26T05:11:33;185.60;;;55.67;;
52798;SDS011;38667;42.872;74.622;2024-02-26T05:14:01;190.67;;;53.97;;
52798;SDS011;38667;42.872;74.622;2024-02-26T05:16:28;199.53;;;55.53;;
52798;SDS011;38667;42.872;74.622;2024-02-26T05:18:54;167.27;;;53.90;;
52798;SDS011;38667;42.872;74.622;2024-02-26T05:21:21;194.43;;;55.53;;
52798;SDS011;38667;42.872;74.622;2024-02-26T05:23:47;209.77;;;59.83;;
52798;SDS011;38667;42.872;74.622;2024-02-26T05:26:19;182.63;;;54.27;;
52798;SDS011;38667;42.872;74.622;2024-02-26T05:28:45;202.20;;;55.97;;
52798;SDS011;38667;42.872;74.622;2024-02-26T05:31:14;188.27;;;55.83;;
52798;SDS011;38667;42.872;74.622;2024-02-26T05:33:41;188.23;;;58.03;;
52798;SDS011;38667;42.872;74.622;2024-02-26T05:36:07;212.87;;;67.97;;
52798;SDS011;38667;42.872;74.622;2024-02-26T05:38:34;191.20;;;63.37;;
52798;SDS011;38667;42.872;74.622;2024-02-26T05:41:00;222.07;;;67.70;;
52798;SDS011;38667;42.872;74.622;2024-02-26T05:43:26;222.23;;;61.60;;
52798;SDS011;38667;42.872;74.622;2024-02-26T05:45:53;190.97;;;56.07;;
52798;SDS011;38667;42.872;74.622;2024-02-26T05:48:21;214.17;;;61.37;;
52798;SDS011;38667;42.872;74.622;2024-02-26T05:50:47;204.03;;;61.27;;
52798;SDS011;38667;42.872;74.622;2024-02-26T05:53:14;185.37;;;59.63;;
52798;SDS011;38667;42.872;74.622;2024-02-26T05:55:40;226.67;;;64.23;;
52798;SDS011;38667;42.872;74.622;2024-02-26T05:58:07;211.23;;;64.47;;
52798;SDS011;38667;42.872;74.622;2024-02-26T06:00:33;196.63;;;62.50;;
52798;SDS011;38667;42.872;74.622;2024-02-26T06:02:59;183.83;;;55.43;;
52798;SDS011;38667;42.872;74.622;2024-02-26T06:05:27;184.33;;;60.27;;
52798;SDS011;38667;42.872;74.622;2024-02-26T06:07:54;189.97;;;58.77;;
52798;SDS011;38667;42.872;74.622;2024-02-26T06:10:20;180.97;;;56.40;;
52798;SDS011;38667;42.872;74.622;2024-02-26T06:12:46;171.83;;;55.40;;
52798;SDS011;38667;42.872;74.622;2024-02-26T06:15:13;179.50;;;61.07;;
52798;SDS011;38667;42.872;74.622;2024-02-26T06:17:39;215.20;;;63.97;;
52798;SDS011;38667;42.872;74.622;2024-02-26T06:20:06;195.77;;;62.37;;
52798;SDS011;38667;42.872;74.622;2024-02-26T06:22:34;208.03;;;62.77;;
52798;SDS011;38667;42.872;74.622;2024-02-26T06:25:01;186.03;;;58.90;;
52798;SDS011;38667;42.872;74.622;2024-02-26T06:27:27;197.67;;;60.63;;
52798;SDS011;38667;42.872;74.622;2024-02-26T06:29:53;192.77;;;64.53;;
52798;SDS011;38667;42.872;74.622;2024-02-26T06:32:20;212.23;;;77.17;;
52798;SDS011;38667;42.872;74.622;2024-02-26T06:34:46;197.67;;;70.53;;
52798;SDS011;38667;42.872;74.622;2024-02-26T06:37:12;227.50;;;77.07;;
52798;SDS011;38667;42.872;74.622;2024-02-26T06:39:40;191.03;;;62.50;;
52798;SDS011;38667;42.872;74.622;2024-02-26T06:42:07;186.17;;;61.30;;
52798;SDS011;38667;42.872;74.622;2024-02-26T06:44:33;189.57;;;58.77;;
52798;SDS011;38667;42.872;74.622;2024-02-26T06:46:59;201.17;;;68.10;;
52798;SDS011;38667;42.872;74.622;2024-02-26T06:49:26;199.77;;;66.87;;
52798;SDS011;38667;42.872;74.622;2024-02-26T06:51:53;186.67;;;64.20;;
52798;SDS011;38667;42.872;74.622;2024-02-26T06:54:19;174.50;;;62.00;;
52798;SDS011;38667;42.872;74.622;2024-02-26T06:56:47;180.20;;;64.93;;
52798;SDS011;38667;42.872;74.622;2024-02-26T06:59:13;210.53;;;68.00;;
52798;SDS011;38667;42.872;74.622;2024-02-26T07:01:40;182.60;;;58.83;;
52798;SDS011;38667;42.872;74.622;2024-02-26T07:04:07;156.30;;;50.90;;
52798;SDS011;38667;42.872;74.622;2024-02-26T07:06:33;158.67;;;47.77;;
52798;SDS011;38667;42.872;74.622;2024-02-26T07:08:59;159.77;;;50.40;;
52798;SDS011;38667;42.872;74.622;2024-02-26T07:11:26;164.20;;;51.77;;
52798;SDS011;38667;42.872;74.622;2024-02-26T07:13:54;176.07;;;52.97;;
52798;SDS011;38667;42.872;74.622;2024-02-26T07:16:20;173.33;;;54.17;;
52798;SDS011;38667;42.872;74.622;2024-02-26T07:18:47;183.40;;;58.53;;
52798;SDS011;38667;42.872;74.622;2024-02-26T07:21:13;169.10;;;55.67;;
52798;SDS011;38667;42.872;74.622;2024-02-26T07:23:39;165.77;;;54.43;;
52798;SDS011;38667;42.872;74.622;2024-02-26T07:26:06;204.53;;;63.50;;
52798;SDS011;38667;42.872;74.622;2024-02-26T07:28:32;233.13;;;71.23;;
52798;SDS011;38667;42.872;74.622;2024-02-26T07:31:00;210.43;;;68.67;;
52798;SDS011;38667;42.872;74.622;2024-02-26T07:33:26;195.37;;;66.20;;
52798;SDS011;38667;42.872;74.622;2024-02-26T07:35:53;187.00;;;61.73;;
52798;SDS011;38667;42.872;74.622;2024-02-26T07:38:19;189.43;;;65.47;;
52798;SDS011;38667;42.872;74.622;2024-02-26T07:40:46;189.80;;;64.13;;
52798;SDS011;38667;42.872;74.622;2024-02-26T07:43:12;186.57;;;64.00;;
52798;SDS011;38667;42.872;74.622;2024-02-26T07:45:38;205.57;;;66.03;;
52798;SDS011;38667;42.872;74.622;2024-02-26T07:48:07;189.00;;;60.37;;
52798;SDS011;38667;42.872;74.622;2024-02-26T07:50:33;188.93;;;62.30;;
52798;SDS011;38667;42.872;74.622;2024-02-26T07:52:59;173.57;;;55.20;;
52798;SDS011;38667;42.872;74.622;2024-02-26T07:55:26;168.43;;;53.77;;
52798;SDS011;38667;42.872;74.622;2024-02-26T07:57:52;171.07;;;52.80;;
52798;SDS011;38667;42.872;74.622;2024-02-26T08:00:18;171.80;;;59.50;;
52798;SDS011;38667;42.872;74.622;2024-02-26T08:02:45;166.60;;;55.43;;
52798;SDS011;38667;42.872;74.622;2024-02-26T08:05:13;144.93;;;54.23;;
52798;SDS011;38667;42.872;74.622;2024-02-26T08:07:40;164.07;;;57.70;;
52798;SDS011;38667;42.872;74.622;2024-02-26T08:10:06;164.13;;;55.37;;
52798;SDS011;38667;42.872;74.622;2024-02-26T08:12:33;159.07;;;55.73;;
52798;SDS011;38667;42.872;74.622;2024-02-26T08:15:00;166.50;;;57.00;;
52798;SDS011;38667;42.872;74.622;2024-02-26T08:17:26;156.10;;;54.23;;
52798;SDS011;38667;42.872;74.622;2024-02-26T08:19:52;156.53;;;54.77;;
52798;SDS011;38667;42.872;74.622;2024-02-26T08:22:20;168.00;;;56.67;;
52798;SDS011;38667;42.872;74.622;2024-02-26T08:24:46;169.47;;;58.30;;
52798;SDS011;38667;42.872;74.622;2024-02-26T08:27:13;168.30;;;61.83;;
52798;SDS011;38667;42.872;74.622;2024-02-26T08:29:39;172.37;;;64.80;;
52798;SDS011;38667;42.872;74.622;2024-02-26T08:32:06;162.00;;;55.13;;
52798;SDS011;38667;42.872;74.622;2024-02-26T08:34:32;131.40;;;48.23;;
52798;SDS011;38667;42.872;74.622;2024-02-26T08:36:58;135.30;;;49.40;;
52798;SDS011;38667;42.872;74.622;2024-02-26T08:39:26;138.00;;;50.10;;
52798;SDS011;38667;42.872;74.622;2024-02-26T08:41:53;148.20;;;49.03;;
52798;SDS011;38667;42.872;74.622;2024-02-26T08:44:19;159.70;;;51.60;;
52798;SDS011;38667;42.872;74.622;2024-02-26T08:46:45;152.93;;;55.00;;
52798;SDS011;38667;42.872;74.622;2024-02-26T08:49:12;157.70;;;56.70;;
52798;SDS011;38667;42.872;74.622;2024-02-26T08:51:41;163.63;;;58.30;;
52798;SDS011;38667;42.872;74.622;2024-02-26T08:54:07;152.03;;;56.33;;
52798;SDS011;38667;42.872;74.622;2024-02-26T08:56:35;141.80;;;52.53;;
52798;SDS011;38667;42.872;74.622;2024-02-26T08:59:02;153.63;;;55.73;;
52798;SDS011;38667;42.872;74.622;2024-02-26T09:01:28;144.47;;;50.50;;
52798;SDS011;38667;42.872;74.622;2024-02-26T09:03:54;134.93;;;45.90;;
52798;SDS011;38667;42.872;74.622;2024-02-26T09:06:21;147.73;;;46.67;;
52798;SDS011;38667;42.872;74.622;2024-02-26T09:08:47;148.73;;;48.50;;
52798;SDS011;38667;42.872;74.622;2024-02-26T09:11:13;135.70;;;46.37;;
52798;SDS011;38667;42.872;74.622;2024-02-26T09:13:41;134.33;;;46.67;;
52798;SDS011;38667;42.872;74.622;2024-02-26T09:16:08;140.50;;;49.87;;
52798;SDS011;38667;42.872;74.622;2024-02-26T09:18:34;128.43;;;47.20;;
52798;SDS011;38667;42.872;74.622;2024-02-26T09:21:03;138.80;;;48.23;;
52798;SDS011;38667;42.872;74.622;2024-02-26T09:23:30;149.83;;;48.87;;
52798;SDS011;38667;42.872;74.622;2024-02-26T09:25:56;160.47;;;53.93;;
52798;SDS011;38667;42.872;74.622;2024-02-26T09:28:23;156.13;;;54.73;;
52798;SDS011;38667;42.872;74.622;2024-02-26T09:30:51;157.53;;;55.90;;
52798;SDS011;38667;42.872;74.622;2024-02-26T09:33:17;147.03;;;48.93;;
52798;SDS011;38667;42.872;74.622;2024-02-26T09:35:44;131.10;;;47.77;;
52798;SDS011;38667;42.872;74.622;2024-02-26T09:38:10;127.23;;;48.90;;
52798;SDS011;38667;42.872;74.622;2024-02-26T09:40:36;148.60;;;51.23;;
52798;SDS011;38667;42.872;74.622;2024-02-26T09:43:04;147.33;;;49.57;;
52798;SDS011;38667;42.872;74.622;2024-02-26T09:45:33;140.53;;;47.17;;
52798;SDS011;38667;42.872;74.622;2024-02-26T09:48:02;138.13;;;48.93;;
52798;SDS011;38667;42.872;74.622;2024-02-26T09:50:29;135.77;;;52.13;;
52798;SDS011;38667;42.872;74.622;2024-02-26T09:52:56;144.43;;;53.60;;
52798;SDS011;38667;42.872;74.622;2024-02-26T09:55:23;138.20;;;48.40;;
52798;SDS011;38667;42.872;74.622;2024-02-26T09:57:49;146.67;;;50.80;;
52798;SDS011;38667;42.872;74.622;2024-02-26T10:00:17;141.87;;;51.30;;
52798;SDS011;38667;42.872;74.622;2024-02-26T10:02:45;141.87;;;52.77;;
52798;SDS011;38667;42.872;74.622;2024-02-26T10:05:14;151.07;;;53.00;;
52798;SDS011;38667;42.872;74.622;2024-02-26T10:07:42;159.37;;;55.17;;
52798;SDS011;38667;42.872;74.622;2024-02-26T10:10:10;172.03;;;57.47;;
52798;SDS011;38667;42.872;74.622;2024-02-26T10:12:36;158.40;;;57.57;;
52798;SDS011;38667;42.872;74.622;2024-02-26T10:15:03;167.67;;;60.97;;
52798;SDS011;38667;42.872;74.622;2024-02-26T10:17:29;147.30;;;49.57;;
52798;SDS011;38667;42.872;74.622;2024-02-26T10:20:00;148.17;;;51.67;;
52798;SDS011;38667;42.872;74.622;2024-02-26T10:22:38;135.97;;;49.37;;
52798;SDS011;38667;42.872;74.622;2024-02-26T10:25:05;139.47;;;47.53;;
52798;SDS011;38667;42.872;74.622;2024-02-26T10:27:31;134.30;;;45.53;;
52798;SDS011;38667;42.872;74.622;2024-02-26T10:29:58;138.20;;;47.73;;
52798;SDS011;38667;42.872;74.622;2024-02-26T10:32:27;126.17;;;45.27;;
52798;SDS011;38667;42.872;74.622;2024-02-26T10:34:55;124.97;;;44.50;;
52798;SDS011;38667;42.872;74.622;2024-02-26T10:37:22;136.87;;;50.87;;
52798;SDS011;38667;42.872;74.622;2024-02-26T10:39:50;147.80;;;54.37;;
52798;SDS011;38667;42.872;74.622;2024-02-26T10:42:17;144.07;;;49.90;;
52798;SDS011;38667;42.872;74.622;2024-02-26T10:44:43;149.80;;;50.47;;
52798;SDS011;38667;42.872;74.622;2024-02-26T10:47:09;139.97;;;51.27;;
52798;SDS011;38667;42.872;74.622;2024-02-26T10:49:36;140.77;;;52.17;;
52798;SDS011;38667;42.872;74.622;2024-02-26T10:52:03;139.07;;;50.00;;
52798;SDS011;38667;42.872;74.622;2024-02-26T10:54:31;146.53;;;52.20;;
52798;SDS011;38667;42.872;74.622;2024-02-26T10:57:00;137.70;;;47.47;;
52798;SDS011;38667;42.872;74.622;2024-02-26T10:59:28;153.90;;;51.27;;
52798;SDS011;38667;42.872;74.622;2024-02-26T11:01:57;131.40;;;49.87;;
52798;SDS011;38667;42.872;74.622;2024-02-26T11:04:25;152.57;;;50.90;;
52798;SDS011;38667;42.872;74.622;2024-02-26T11:06:52;131.50;;;48.83;;
52798;SDS011;38667;42.872;74.622;2024-02-26T11:09:22;135.90;;;50.17;;
52798;SDS011;38667;42.872;74.622;2024-02-26T11:11:49;160.07;;;56.63;;
52798;SDS011;38667;42.872;74.622;2024-02-26T11:14:18;176.00;;;64.47;;
52798;SDS011;38667;42.872;74.622;2024-02-26T11:16:44;168.73;;;58.90;;
52798;SDS011;38667;42.872;74.622;2024-02-26T11:19:11;221.50;;;74.90;;
52798;SDS011;38667;42.872;74.622;2024-02-26T11:21:37;173.50;;;56.97;;
52798;SDS011;38667;42.872;74.622;2024-02-26T11:24:04;167.37;;;57.03;;
52798;SDS011;38667;42.872;74.622;2024-02-26T11:26:33;151.03;;;53.67;;
52798;SDS011;38667;42.872;74.622;2024-02-26T11:29:01;161.33;;;57.30;;
52798;SDS011;38667;42.872;74.622;2024-02-26T11:31:30;159.03;;;55.33;;
52798;SDS011;38667;42.872;74.622;2024-02-26T11:33:58;138.50;;;53.90;;
52798;SDS011;38667;42.872;74.622;2024-02-26T11:36:24;168.00;;;58.63;;
52798;SDS011;38667;42.872;74.622;2024-02-26T11:38:51;152.30;;;54.70;;
52798;SDS011;38667;42.872;74.622;2024-02-26T11:41:18;163.03;;;62.23;;
52798;SDS011;38667;42.872;74.622;2024-02-26T11:43:51;197.27;;;77.23;;
52798;SDS011;38667;42.872;74.622;2024-02-26T11:46:27;155.47;;;56.57;;
52798;SDS011;38667;42.872;74.622;2024-02-26T11:48:56;169.00;;;61.40;;
52798;SDS011;38667;42.872;74.622;2024-02-26T11:51:28;147.77;;;54.43;;
52798;SDS011;38667;42.872;74.622;2024-02-26T11:53:58;161.63;;;59.33;;
52798;SDS011;38667;42.872;74.622;2024-02-26T11:56:25;152.87;;;54.70;;
52798;SDS011;38667;42.872;74.622;2024-02-26T11:59:10;145.03;;;57.60;;
52798;SDS011;38667;42.872;74.622;2024-02-26T12:01:57;132.83;;;48.13;;
52798;SDS011;38667;42.872;74.622;2024-02-26T12:04:26;132.60;;;48.97;;
52798;SDS011;38667;42.872;74.622;2024-02-26T12:06:56;152.37;;;53.13;;
52798;SDS011;38667;42.872;74.622;2024-02-26T12:09:32;134.03;;;45.80;;
52798;SDS011;38667;42.872;74.622;2024-02-26T12:11:59;147.63;;;50.90;;
52798;SDS011;38667;42.872;74.622;2024-02-26T12:14:27;135.90;;;50.30;;
52798;SDS011;38667;42.872;74.622;2024-02-26T12:16:53;152.53;;;52.53;;
52798;SDS011;38667;42.872;74.622;2024-02-26T12:19:21;163.93;;;55.67;;
52798;SDS011;38667;42.872;74.622;2024-02-26T12:21:51;229.00;;;74.30;;
52798;SDS011;38667;42.872;74.622;2024-02-26T12:24:18;238.60;;;80.70;;
52798;SDS011;38667;42.872;74.622;2024-02-26T12:26:44;269.70;;;91.90;;
52798;SDS011;38667;42.872;74.622;2024-02-26T12:29:12;210.70;;;74.47;;
52798;SDS011;38667;42.872;74.622;2024-02-26T12:31:38;215.67;;;72.37;;
52798;SDS011;38667;42.872;74.622;2024-02-26T12:34:06;311.30;;;96.30;;
52798;SDS011;38667;42.872;74.622;2024-02-26T12:36:33;282.73;;;94.10;;
52798;SDS011;38667;42.872;74.622;2024-02-26T12:39:02;212.00;;;71.87;;
52798;SDS011;38667;42.872;74.622;2024-02-26T12:41:28;186.30;;;59.97;;
52798;SDS011;38667;42.872;74.622;2024-02-26T12:43:55;190.20;;;61.00;;
52798;SDS011;38667;42.872;74.622;2024-02-26T12:46:22;163.83;;;53.40;;
52798;SDS011;38667;42.872;74.622;2024-02-26T12:48:48;180.50;;;62.27;;
52798;SDS011;38667;42.872;74.622;2024-02-26T12:51:15;140.00;;;47.67;;
52798;SDS011;38667;42.872;74.622;2024-02-26T12:53:42;147.17;;;52.97;;
52798;SDS011;38667;42.872;74.622;2024-02-26T12:56:11;150.80;;;52.17;;
52798;SDS011;38667;42.872;74.622;2024-02-26T12:58:39;147.87;;;50.80;;
52798;SDS011;38667;42.872;74.622;2024-02-26T13:01:06;153.33;;;50.90;;
52798;SDS011;38667;42.872;74.622;2024-02-26T13:03:33;160.07;;;51.77;;
52798;SDS011;38667;42.872;74.622;2024-02-26T13:06:01;167.07;;;55.70;;
52798;SDS011;38667;42.872;74.622;2024-02-26T13:08:28;151.97;;;48.97;;
52798;SDS011;38667;42.872;74.622;2024-02-26T13:10:54;150.77;;;51.87;;
52798;SDS011;38667;42.872;74.622;2024-02-26T13:13:22;155.70;;;52.27;;
52798;SDS011;38667;42.872;74.622;2024-02-26T13:15:49;163.17;;;53.27;;
52798;SDS011;38667;42.872;74.622;2024-02-26T13:18:15;163.77;;;55.77;;
52798;SDS011;38667;42.872;74.622;2024-02-26T13:20:42;163.63;;;57.37;;
52798;SDS011;38667;42.872;74.622;2024-02-26T13:23:10;160.47;;;56.60;;
52798;SDS011;38667;42.872;74.622;2024-02-26T13:25:37;157.77;;;55.53;;
52798;SDS011;38667;42.872;74.622;2024-02-26T13:28:05;146.40;;;54.20;;
52798;SDS011;38667;42.872;74.622;2024-02-26T13:30:35;161.80;;;54.90;;
52798;SDS011;38667;42.872;74.622;2024-02-26T13:33:07;166.27;;;56.97;;
52798;SDS011;38667;42.872;74.622;2024-02-26T13:35:34;187.80;;;64.07;;
52798;SDS011;38667;42.872;74.622;2024-02-26T13:38:00;165.23;;;61.57;;
52798;SDS011;38667;42.872;74.622;2024-02-26T13:40:27;167.57;;;55.43;;
52798;SDS011;38667;42.872;74.622;2024-02-26T13:42:54;155.57;;;54.83;;
52798;SDS011;38667;42.872;74.622;2024-02-26T13:45:20;160.90;;;53.33;;
52798;SDS011;38667;42.872;74.622;2024-02-26T13:47:48;164.47;;;54.93;;
52798;SDS011;38667;42.872;74.622;2024-02-26T13:50:14;162.43;;;55.20;;
52798;SDS011;38667;42.872;74.622;2024-02-26T13:52:41;193.67;;;66.63;;
52798;SDS011;38667;42.872;74.622;2024-02-26T13:55:08;199.17;;;69.83;;
52798;SDS011;38667;42.872;74.622;2024-02-26T13:57:34;204.93;;;69.80;;
52798;SDS011;38667;42.872;74.622;2024-02-26T14:00:00;192.33;;;68.97;;